createdAt,value
2022-12-03T00:00:47.802Z,100993.56
2022-12-03T00:05:48.323Z,100976.72
2022-12-03T00:10:42.521Z,100981.78
2022-12-03T00:15:37.178Z,100987.59
2022-12-03T00:20:30.387Z,100984.88
2022-12-03T00:25:24.047Z,100954.31
2022-12-03T00:30:18.306Z,100982.25
2022-12-03T00:35:11.490Z,100967.19
2022-12-03T00:40:06.069Z,100963.00
2022-12-03T00:45:00.354Z,100956.31
2022-12-03T00:49:54.535Z,100965.13
2022-12-03T00:54:48.359Z,100966.75
2022-12-03T00:59:47.037Z,100989.22
2022-12-03T01:04:41.196Z,100978.63
2022-12-03T01:09:33.930Z,100968.47
2022-12-03T01:14:27.113Z,100982.16
2022-12-03T01:19:21.423Z,100977.53
2022-12-03T01:24:16.127Z,100978.72
2022-12-03T01:29:09.585Z,100962.69
2022-12-03T01:34:04.790Z,100970.53
2022-12-03T01:38:59.226Z,100966.69
2022-12-03T01:43:54.130Z,100965.06
2022-12-03T01:48:54.730Z,100984.63
2022-12-03T01:53:50.415Z,100970.44
2022-12-03T01:58:46.596Z,100975.00
2022-12-03T02:03:42.123Z,100955.66
2022-12-03T02:08:38.663Z,100933.28
2022-12-03T02:13:34.098Z,100948.50
2022-12-03T02:18:27.598Z,100945.91
2022-12-03T02:23:23.611Z,100948.31
2022-12-03T02:28:18.218Z,100902.69
2022-12-03T02:33:11.217Z,100935.06
2022-12-03T02:38:20.662Z,100908.09
2022-12-03T02:43:16.742Z,100932.19
2022-12-03T02:48:24.161Z,100903.13
2022-12-03T02:53:30.960Z,100921.69
2022-12-03T02:58:26.739Z,100918.44
2022-12-03T03:03:22.434Z,100926.97
2022-12-03T03:08:18.049Z,100898.50
2022-12-03T03:13:14.644Z,100904.44
2022-12-03T03:18:10.033Z,100920.13
2022-12-03T03:23:24.422Z,100907.25
2022-12-03T03:28:18.531Z,100912.19
2022-12-03T03:33:13.701Z,100922.56
2022-12-03T03:38:09.130Z,100894.16
2022-12-03T03:43:03.486Z,100884.59
2022-12-03T03:48:02.623Z,100894.09
2022-12-03T03:52:57.046Z,100900.06
2022-12-03T03:57:50.534Z,100915.53
2022-12-03T04:02:44.233Z,100887.94
2022-12-03T04:07:38.582Z,100896.22
2022-12-03T04:12:50.395Z,100874.88
2022-12-03T04:17:44.056Z,100874.00
2022-12-03T04:22:41.378Z,100899.81
2022-12-03T04:27:53.849Z,100856.66
2022-12-03T04:33:05.363Z,100890.84
2022-12-03T04:37:59.376Z,100887.16
2022-12-03T04:42:53.808Z,100886.41
2022-12-03T04:47:47.666Z,100878.47
2022-12-03T04:52:40.896Z,100878.53
2022-12-03T04:57:35.231Z,100882.91
2022-12-03T05:02:29.291Z,100867.88
2022-12-03T05:07:26.298Z,100861.72
2022-12-03T05:12:19.701Z,100865.41
2022-12-03T05:17:17.198Z,100876.81
2022-12-03T05:22:10.841Z,100853.25
2022-12-03T05:27:04.108Z,100858.53
2022-12-03T05:31:57.633Z,100842.34
2022-12-03T05:36:51.808Z,100856.34
2022-12-03T05:42:04.207Z,100864.34
2022-12-03T05:46:57.758Z,100867.88
2022-12-03T05:51:56.698Z,100864.53
2022-12-03T05:56:51.246Z,100842.91
2022-12-03T06:01:45.319Z,100864.47
2022-12-03T06:06:39.144Z,100859.94
2022-12-03T06:11:35.086Z,100846.19
2022-12-03T06:16:28.970Z,100852.72
2022-12-03T06:21:23.165Z,100863.16
2022-12-03T06:26:16.526Z,100859.00
2022-12-03T06:31:10.356Z,100864.53
2022-12-03T06:36:04.174Z,100819.69
2022-12-03T06:40:58.240Z,100851.13
2022-12-03T06:45:52.078Z,100818.50
2022-12-03T06:50:46.042Z,100863.25
2022-12-03T06:55:39.727Z,100842.06
2022-12-03T07:00:33.473Z,100862.75
2022-12-03T07:05:31.001Z,100869.06
2022-12-03T07:10:24.850Z,100874.44
2022-12-03T07:15:17.370Z,100843.19
2022-12-03T07:20:12.790Z,100863.16
2022-12-03T07:25:08.625Z,100856.16
2022-12-03T07:30:01.695Z,100859.84
2022-12-03T07:34:55.337Z,100841.91
2022-12-03T07:39:48.614Z,100817.16
2022-12-03T07:44:42.271Z,100828.94
2022-12-03T07:49:35.810Z,100847.78
2022-12-03T07:54:29.778Z,100829.78
2022-12-03T07:59:23.939Z,100853.75
2022-12-03T08:04:19.375Z,100833.44
2022-12-03T08:09:16.041Z,100865.97
2022-12-03T08:14:18.883Z,100853.50
2022-12-03T08:19:15.563Z,100856.00
2022-12-03T08:24:16.821Z,100843.13
2022-12-03T08:29:14.057Z,100851.13
2022-12-03T08:34:27.275Z,100844.47
2022-12-03T08:39:38.270Z,100851.13
2022-12-03T08:44:37.741Z,100876.09
2022-12-03T08:49:33.085Z,100865.03
2022-12-03T08:54:27.310Z,100884.69
2022-12-03T08:59:29.145Z,100881.13
2022-12-03T09:04:24.513Z,100866.84
2022-12-03T09:09:18.929Z,100886.41
2022-12-03T09:14:18.477Z,100881.13
2022-12-03T09:19:12.318Z,100861.03
2022-12-03T09:24:06.378Z,100873.34
2022-12-03T09:28:59.495Z,100874.94
2022-12-03T09:33:53.277Z,100874.78
2022-12-03T09:38:48.146Z,100841.41
2022-12-03T09:44:03.274Z,100873.84
2022-12-03T09:48:56.287Z,100867.53
2022-12-03T09:53:50.778Z,100869.22
2022-12-03T09:58:43.961Z,100858.81
2022-12-03T10:03:46.802Z,100829.88
2022-12-03T10:08:40.855Z,100814.47
2022-12-03T10:13:36.802Z,100802.94
2022-12-03T10:18:41.268Z,100818.16
2022-12-03T10:23:35.381Z,100837.56
2022-12-03T10:28:38.600Z,100790.66
2022-12-03T10:33:34.075Z,100799.19
2022-12-03T10:38:28.036Z,100816.09
2022-12-03T10:43:25.832Z,100788.16
2022-12-03T10:48:28.238Z,100782.28
2022-12-03T10:53:28.504Z,100807.97
2022-12-03T10:58:27.083Z,100778.59
2022-12-03T11:03:22.615Z,100786.19
2022-12-03T11:08:25.103Z,100805.31
2022-12-03T11:13:33.369Z,100799.94
2022-12-03T11:18:38.937Z,100783.38
2022-12-03T11:23:51.783Z,100780.63
2022-12-03T11:28:47.362Z,100782.50
2022-12-03T11:33:42.423Z,100771.25
2022-12-03T11:38:38.054Z,100779.09
2022-12-03T11:43:53.031Z,100769.38
2022-12-03T11:48:46.917Z,100735.16
2022-12-03T11:53:41.758Z,100713.97
2022-12-03T11:58:46.218Z,100731.97
2022-12-03T12:03:50.075Z,100755.09
2022-12-03T12:08:52.722Z,100759.28
2022-12-03T12:13:45.700Z,100784.13
2022-12-03T12:18:55.419Z,100735.78
2022-12-03T12:23:50.369Z,100752.16
2022-12-03T12:28:44.519Z,100727.06
2022-12-03T12:33:38.037Z,100743.97
2022-12-03T12:38:31.928Z,100716.94
2022-12-03T12:43:27.666Z,100738.25
2022-12-03T12:48:32.370Z,100709.75
2022-12-03T12:53:31.050Z,100716.69
2022-12-03T12:58:25.818Z,100705.88
2022-12-03T13:03:20.842Z,100710.47
2022-12-03T13:08:32.401Z,100690.03
2022-12-03T13:13:29.774Z,100698.47
2022-12-03T13:18:26.185Z,100698.66
2022-12-03T13:23:28.334Z,100686.16
2022-12-03T13:28:21.434Z,100690.59
2022-12-03T13:33:27.462Z,100669.78
2022-12-03T13:38:22.706Z,100677.63
2022-12-03T13:43:19.293Z,100670.44
2022-12-03T13:48:32.065Z,100684.19
2022-12-03T13:53:33.615Z,100674.72
2022-12-03T13:58:26.969Z,100662.78
2022-12-03T14:03:20.879Z,100679.06
2022-12-03T14:08:14.138Z,100669.41
2022-12-03T14:13:07.812Z,100659.28
2022-12-03T14:18:06.040Z,100656.66
2022-12-03T14:22:59.781Z,100679.72
2022-12-03T14:27:52.889Z,100674.63
2022-12-03T14:32:46.377Z,100633.81
2022-12-03T14:37:40.064Z,100677.34
2022-12-03T14:42:33.775Z,100675.94
2022-12-03T14:47:27.953Z,100682.25
2022-12-03T14:52:21.249Z,100685.78
2022-12-03T14:57:15.929Z,100689.28
2022-12-03T15:02:10.688Z,100693.72
2022-12-03T15:07:04.819Z,100678.56
2022-12-03T15:11:58.611Z,100701.75
2022-12-03T15:16:51.804Z,100680.44
2022-12-03T15:21:45.910Z,100695.72
2022-12-03T15:26:39.274Z,100704.59
2022-12-03T15:31:32.922Z,100689.72
2022-12-03T15:36:26.094Z,100699.38
2022-12-03T15:41:24.450Z,100680.63
2022-12-03T15:46:18.158Z,100691.13
2022-12-03T15:51:11.895Z,100685.25
2022-12-03T15:56:07.374Z,100718.00
2022-12-03T16:01:01.431Z,100718.00
2022-12-03T16:05:55.072Z,100692.25
2022-12-03T16:10:48.226Z,100675.19
2022-12-03T16:15:41.762Z,100711.94
2022-12-03T16:20:34.942Z,100725.19
2022-12-03T16:25:28.512Z,100699.34
2022-12-03T16:30:22.529Z,100715.94
2022-12-03T16:35:16.087Z,100703.84
2022-12-03T16:40:11.309Z,100724.16
2022-12-03T16:45:04.310Z,100718.00
2022-12-03T16:49:58.753Z,100712.03
2022-12-03T16:54:53.017Z,100703.59
2022-12-03T16:59:47.410Z,100718.38
2022-12-03T17:04:41.108Z,100721.59
2022-12-03T17:09:34.384Z,100708.47
2022-12-03T17:14:33.042Z,100698.59
2022-12-03T17:19:27.599Z,100691.56
2022-12-03T17:24:21.709Z,100708.47
2022-12-03T17:29:14.958Z,100710.25
2022-12-03T17:34:08.687Z,100697.53
2022-12-03T17:39:01.659Z,100688.81
2022-12-03T17:43:55.417Z,100704.94
2022-12-03T17:48:48.242Z,100688.81
2022-12-03T17:53:41.998Z,100712.88
2022-12-03T17:58:35.808Z,100694.81
2022-12-03T18:03:30.160Z,100677.41
2022-12-03T18:08:24.183Z,100693.50
2022-12-03T18:13:17.731Z,100681.22
2022-12-03T18:18:11.426Z,100666.91
2022-12-03T18:23:05.103Z,100684.69
2022-12-03T18:27:58.623Z,100682.03
2022-12-03T18:32:52.474Z,100644.47
2022-12-03T18:37:45.041Z,100674.31
2022-12-03T18:42:39.482Z,100677.69
2022-12-03T18:47:33.598Z,100686.50
2022-12-03T18:52:27.035Z,100690.09
2022-12-03T18:57:20.521Z,100680.53
2022-12-03T19:02:38.991Z,100679.59
2022-12-03T19:07:31.283Z,100659.91
2022-12-03T19:12:24.766Z,100652.81
2022-12-03T19:17:18.662Z,100681.31
2022-12-03T19:22:12.438Z,100665.75
2022-12-03T19:27:06.195Z,100660.63
2022-12-03T19:32:00.253Z,100659.13
2022-12-03T19:36:54.126Z,100673.03
2022-12-03T19:41:47.593Z,100668.78
2022-12-03T19:46:42.206Z,100676.97
2022-12-03T19:51:39.342Z,100669.28
2022-12-03T19:56:33.861Z,100665.41
2022-12-03T20:01:33.708Z,100625.25
2022-12-03T20:06:34.160Z,100677.69
2022-12-03T20:11:32.316Z,100679.41
2022-12-03T20:16:26.988Z,100646.66
2022-12-03T20:21:21.145Z,100621.00
2022-12-03T20:26:17.625Z,100654.84
2022-12-03T20:31:14.308Z,100653.13
2022-12-03T20:36:09.599Z,100630.41
2022-12-03T20:41:11.258Z,100626.16
2022-12-03T20:46:14.112Z,100625.97
2022-12-03T20:51:13.633Z,100601.84
2022-12-03T20:56:08.400Z,100611.31
2022-12-03T21:01:16.706Z,100631.94
2022-12-03T21:06:11.167Z,100630.03
2022-12-03T21:11:15.858Z,100603.44
2022-12-03T21:16:11.319Z,100617.00
2022-12-03T21:21:05.485Z,100604.38
2022-12-03T21:26:17.685Z,100606.00
2022-12-03T21:31:20.462Z,100616.03
2022-12-03T21:36:17.798Z,100619.63
2022-12-03T21:41:11.357Z,100604.09
2022-12-03T21:47:10.206Z,100615.19
2022-12-03T21:51:22.357Z,100633.81
2022-12-03T21:56:19.118Z,100626.22
2022-12-03T22:01:26.977Z,100631.94
2022-12-03T22:06:20.912Z,100624.28
2022-12-03T22:11:18.283Z,100649.53
2022-12-03T22:16:15.240Z,100623.13
2022-12-03T22:21:15.154Z,100626.63
2022-12-03T22:26:12.380Z,100634.47
2022-12-03T22:31:09.983Z,100609.03
2022-12-03T22:36:07.241Z,100603.53
2022-12-03T22:41:00.974Z,100577.06
2022-12-03T22:45:56.009Z,100586.25
2022-12-03T22:50:50.646Z,100581.97
2022-12-03T22:55:44.179Z,100593.91
2022-12-03T23:00:42.525Z,100591.34
2022-12-03T23:05:38.981Z,100593.16
2022-12-03T23:10:35.438Z,100551.53
2022-12-03T23:15:28.958Z,100552.84
2022-12-03T23:20:22.493Z,100546.06
2022-12-03T23:25:17.565Z,100529.88
2022-12-03T23:30:10.986Z,100534.69
2022-12-03T23:35:05.119Z,100547.38
2022-12-03T23:40:03.152Z,100547.09
2022-12-03T23:44:57.466Z,100553.44
2022-12-03T23:49:52.038Z,100525.16
2022-12-03T23:54:45.826Z,100481.56
2022-12-03T23:59:42.830Z,100502.19
